createdAt,value
2022-11-22T00:01:48.407Z,4.57
2022-11-22T00:07:04.187Z,3.47
2022-11-22T00:12:19.395Z,6.30
2022-11-22T00:17:35.177Z,4.97
2022-11-22T00:22:50.140Z,4.20
2022-11-22T00:28:05.448Z,4.50
2022-11-22T00:33:21.219Z,4.93
2022-11-22T00:38:36.194Z,3.67
2022-11-22T00:43:51.128Z,5.80
2022-11-22T00:49:06.161Z,3.92
2022-11-22T00:54:21.205Z,5.35
2022-11-22T00:59:36.168Z,6.63
2022-11-22T01:04:51.155Z,3.55
2022-11-22T01:10:06.209Z,6.28
2022-11-22T01:15:21.245Z,3.92
2022-11-22T01:20:36.149Z,6.22
2022-11-22T01:25:51.143Z,4.32
2022-11-22T01:31:06.151Z,3.38
2022-11-22T01:36:21.305Z,12.82
2022-11-22T01:41:37.174Z,5.82
2022-11-22T01:46:52.456Z,8.93
2022-11-22T01:52:08.160Z,6.88
2022-11-22T01:57:23.471Z,5.40
2022-11-22T02:02:39.255Z,5.18
2022-11-22T02:07:54.138Z,4.43
2022-11-22T02:13:09.577Z,2.25
2022-11-22T02:18:25.496Z,3.55
2022-11-22T02:23:41.176Z,4.18
2022-11-22T02:28:56.117Z,6.10
2022-11-22T02:34:11.211Z,3.97
2022-11-22T02:39:26.447Z,4.30
2022-11-22T02:44:42.522Z,3.00
2022-11-22T02:49:58.148Z,10.45
2022-11-22T02:55:13.507Z,4.55
2022-11-22T03:00:29.172Z,3.78
2022-11-22T03:05:44.509Z,5.65
2022-11-22T03:10:59.919Z,8.90
2022-11-22T03:16:15.195Z,5.60
2022-11-22T03:21:30.522Z,5.82
2022-11-22T03:26:46.204Z,6.78
2022-11-22T03:32:01.201Z,4.63
2022-11-22T03:37:16.177Z,7.85
2022-11-22T03:42:31.184Z,3.78
2022-11-22T03:47:46.176Z,7.57
2022-11-22T03:53:01.153Z,6.47
2022-11-22T03:58:16.159Z,10.82
2022-11-22T04:03:31.162Z,7.07
2022-11-22T04:08:46.568Z,11.57
2022-11-22T04:14:03.268Z,11.93
2022-11-22T04:19:18.490Z,6.85
2022-11-22T04:24:34.015Z,12.57
2022-11-22T04:29:49.195Z,15.60
2022-11-22T04:35:04.458Z,42.00
2022-11-22T04:40:20.206Z,24.48
2022-11-22T04:45:35.261Z,22.10
2022-11-22T04:50:50.176Z,12.27
2022-11-22T04:56:04.941Z,12.57
2022-11-22T05:01:20.629Z,11.63
2022-11-22T05:06:36.132Z,18.20
2022-11-22T05:11:51.228Z,25.08
2022-11-22T05:17:06.240Z,38.70
2022-11-22T05:22:21.197Z,32.65
2022-11-22T05:27:35.995Z,53.72
2022-11-22T05:32:51.299Z,61.92
2022-11-22T05:38:06.279Z,62.17
2022-11-22T05:43:21.229Z,52.40
2022-11-22T05:48:36.220Z,61.80
2022-11-22T05:53:51.213Z,64.38
2022-11-22T05:59:06.243Z,56.50
2022-11-22T06:04:21.202Z,48.00
2022-11-22T06:09:36.169Z,42.28
2022-11-22T06:14:51.175Z,50.42
2022-11-22T06:20:06.916Z,48.70
2022-11-22T06:25:22.280Z,45.40
2022-11-22T06:30:37.209Z,40.55
2022-11-22T06:35:51.927Z,35.03
2022-11-22T06:41:07.211Z,36.10
2022-11-22T06:46:22.374Z,33.35
2022-11-22T06:51:38.135Z,33.45
2022-11-22T06:56:53.525Z,26.52
2022-11-22T07:02:09.404Z,25.25
2022-11-22T07:07:25.240Z,31.88
2022-11-22T07:12:40.157Z,22.63
2022-11-22T07:17:55.163Z,22.45
2022-11-22T07:23:10.171Z,18.05
2022-11-22T07:28:25.578Z,24.92
2022-11-22T07:33:41.164Z,15.55
2022-11-22T07:38:56.178Z,14.07
2022-11-22T07:44:11.580Z,11.85
2022-11-22T07:49:27.743Z,14.52
2022-11-22T07:54:43.273Z,13.63
2022-11-22T07:59:58.206Z,8.30
2022-11-22T08:05:12.937Z,9.65
2022-11-22T08:10:28.501Z,10.35
2022-11-22T08:15:43.991Z,9.27
2022-11-22T08:20:59.543Z,10.52
2022-11-22T08:26:15.004Z,11.38
2022-11-22T08:31:30.244Z,10.38
2022-11-22T08:36:45.602Z,9.38
2022-11-22T08:42:01.218Z,7.38
2022-11-22T08:47:16.202Z,5.30
2022-11-22T08:52:31.226Z,7.15
2022-11-22T08:57:46.518Z,5.55
2022-11-22T09:03:02.455Z,6.40
2022-11-22T09:13:36.180Z,6.10
2022-11-22T09:18:51.174Z,7.65
2022-11-22T09:24:06.200Z,3.20
2022-11-22T09:29:21.284Z,4.75
2022-11-22T09:34:35.980Z,6.90
2022-11-22T09:39:51.512Z,7.80
2022-11-22T09:45:07.174Z,6.15
2022-11-22T09:50:22.315Z,3.45
2022-11-22T09:55:37.437Z,3.47
2022-11-22T10:00:53.345Z,4.43
2022-11-22T10:06:07.948Z,5.50
2022-11-22T10:11:23.232Z,3.25
2022-11-22T10:16:38.239Z,4.80
2022-11-22T10:21:53.231Z,3.55
2022-11-22T10:27:09.254Z,4.57
2022-11-22T10:32:24.196Z,4.57
2022-11-22T10:37:39.206Z,6.70
2022-11-22T10:42:54.502Z,4.50
2022-11-22T10:48:10.246Z,4.97
2022-11-22T10:53:24.942Z,4.80
2022-11-22T10:58:40.165Z,3.40
2022-11-22T11:03:55.364Z,3.25
2022-11-22T11:10:02.807Z,3.35
2022-11-22T11:14:45.188Z,3.00
2022-11-22T11:20:00.591Z,2.30
2022-11-22T11:25:16.608Z,5.28
2022-11-22T11:30:32.218Z,4.82
2022-11-22T11:35:47.539Z,6.05
2022-11-22T11:41:03.186Z,8.18
2022-11-22T11:46:18.341Z,2.30
2022-11-22T11:51:33.229Z,3.03
2022-11-22T11:56:48.255Z,4.22
2022-11-22T12:02:03.621Z,3.97
2022-11-22T12:07:19.261Z,3.78
2022-11-22T12:12:34.271Z,1.90
2022-11-22T12:17:49.317Z,5.25
2022-11-22T12:23:04.198Z,2.28
2022-11-22T12:28:19.272Z,3.10
2022-11-22T12:33:34.295Z,2.78
2022-11-22T12:38:49.197Z,8.95
2022-11-22T12:44:03.984Z,2.35
2022-11-22T12:49:19.210Z,2.33
2022-11-22T12:54:34.841Z,4.85
2022-11-22T12:59:50.236Z,1.67
2022-11-22T13:05:05.232Z,5.32
2022-11-22T13:10:20.231Z,2.70
2022-11-22T13:15:35.200Z,3.95
2022-11-22T13:20:50.698Z,3.00
2022-11-22T13:26:10.356Z,5.18
2022-11-22T13:31:28.224Z,4.38
2022-11-22T13:36:43.035Z,2.85
2022-11-22T13:41:58.219Z,4.78
2022-11-22T13:47:13.027Z,17.13
2022-11-22T13:52:28.234Z,7.88
2022-11-22T13:57:43.267Z,4.55
2022-11-22T14:02:58.212Z,4.72
2022-11-22T14:08:13.246Z,5.10
2022-11-22T14:13:28.226Z,3.30
2022-11-22T14:18:43.208Z,4.63
2022-11-22T14:23:58.323Z,3.50
2022-11-22T14:29:13.176Z,4.57
2022-11-22T14:34:28.400Z,3.22
2022-11-22T14:39:44.499Z,2.58
2022-11-22T14:45:00.217Z,3.78
2022-11-22T14:50:15.569Z,2.47
2022-11-22T14:55:31.214Z,2.22
2022-11-22T15:00:46.269Z,2.72
2022-11-22T15:09:13.833Z,2.15
2022-11-22T15:11:36.849Z,2.53
2022-11-22T16:01:32.064Z,3.45
2022-11-22T16:06:47.190Z,4.00
2022-11-22T16:12:02.237Z,3.10
2022-11-22T16:17:17.262Z,3.40
2022-11-22T16:22:33.329Z,2.00
2022-11-22T16:27:48.704Z,2.92
2022-11-22T16:33:04.658Z,2.97
2022-11-22T16:38:20.242Z,3.13
2022-11-22T16:43:35.056Z,1.40
2022-11-22T16:48:50.204Z,1.80
2022-11-22T16:54:05.600Z,3.60
2022-11-22T16:59:21.635Z,4.47
2022-11-22T17:04:40.993Z,7.35
2022-11-22T17:09:56.335Z,4.68
2022-11-22T17:15:11.233Z,6.10
2022-11-22T17:20:26.243Z,8.52
2022-11-22T17:25:41.751Z,3.65
2022-11-22T17:30:57.311Z,8.80
2022-11-22T17:36:12.284Z,11.63
2022-11-22T17:41:27.215Z,6.43
2022-11-22T17:46:42.204Z,5.78
2022-11-22T17:51:57.012Z,4.90
2022-11-22T17:57:12.556Z,3.47
2022-11-22T18:02:28.192Z,7.35
2022-11-22T18:07:43.358Z,5.50
2022-11-22T18:13:20.177Z,5.07
2022-11-22T18:18:55.655Z,4.50
2022-11-22T18:24:08.499Z,4.10
2022-11-22T18:29:41.568Z,3.75
2022-11-22T18:34:57.559Z,3.97
2022-11-22T18:40:13.312Z,8.63
2022-11-22T18:45:28.245Z,2.78
2022-11-22T18:50:43.301Z,5.63
2022-11-22T18:55:58.314Z,3.78
2022-11-22T19:01:14.278Z,4.68
2022-11-22T19:06:29.305Z,4.50
2022-11-22T19:11:44.500Z,4.88
2022-11-22T19:17:00.256Z,2.95
2022-11-22T19:22:15.302Z,7.95
2022-11-22T19:27:30.232Z,2.42
2022-11-22T19:32:45.569Z,2.85
2022-11-22T19:38:01.519Z,3.17
2022-11-22T19:43:17.019Z,6.82
2022-11-22T19:48:32.521Z,3.13
2022-11-22T19:53:48.278Z,2.72
2022-11-22T19:59:03.268Z,3.00
2022-11-22T20:04:18.626Z,3.45
2022-11-22T20:09:34.553Z,19.85
2022-11-22T20:14:50.618Z,9.73
2022-11-22T20:20:06.267Z,11.80
2022-11-22T20:25:21.586Z,7.18
2022-11-22T20:30:37.269Z,5.32
2022-11-22T20:35:52.249Z,3.60
2022-11-22T20:41:07.605Z,3.70
2022-11-22T20:46:23.282Z,5.43
2022-11-22T20:51:38.012Z,8.68
2022-11-22T20:56:53.239Z,11.95
2022-11-22T21:02:09.451Z,6.10
2022-11-22T21:07:25.389Z,3.80
2022-11-22T21:12:40.303Z,7.20
2022-11-22T21:18:23.021Z,3.10
2022-11-22T21:23:30.317Z,9.25
2022-11-22T21:28:45.235Z,5.22
2022-11-22T21:34:00.714Z,4.07
2022-11-22T21:39:16.581Z,4.20
2022-11-22T21:44:32.577Z,3.85
2022-11-22T21:49:48.191Z,7.32
2022-11-22T21:55:03.295Z,3.28
2022-11-22T22:00:18.218Z,3.40
2022-11-22T22:06:11.271Z,4.35
2022-11-22T22:11:26.303Z,3.70
2022-11-22T22:16:41.100Z,4.07
2022-11-22T22:21:56.238Z,5.57
2022-11-22T22:27:11.647Z,3.47
2022-11-22T22:32:27.578Z,4.63
2022-11-22T22:37:43.543Z,7.60
2022-11-22T22:42:59.618Z,5.40
2022-11-22T22:48:15.249Z,5.45
2022-11-22T22:53:30.218Z,5.55
2022-11-22T22:58:45.253Z,8.48
2022-11-22T23:04:00.324Z,8.60
2022-11-22T23:09:15.259Z,5.30
2022-11-22T23:14:30.338Z,5.57
2022-11-22T23:19:45.592Z,3.47
2022-11-22T23:25:01.249Z,7.00
2022-11-22T23:30:16.560Z,4.88
2022-11-22T23:35:32.594Z,3.70
2022-11-22T23:40:48.260Z,5.03
2022-11-22T23:46:03.573Z,3.67
2022-11-22T23:51:19.280Z,6.80
2022-11-22T23:56:34.551Z,3.15
